createdAt,value
2023-04-07T00:00:09.653Z,0.00
2023-04-07T00:01:09.674Z,0.00
2023-04-07T00:02:09.700Z,0.00
2023-04-07T00:03:09.855Z,0.00
2023-04-07T00:04:09.921Z,0.00
2023-04-07T00:05:09.756Z,0.00
2023-04-07T00:06:09.850Z,0.00
2023-04-07T00:07:09.807Z,0.00
2023-04-07T00:08:09.813Z,0.00
2023-04-07T00:09:09.838Z,0.00
2023-04-07T00:10:09.869Z,0.00
2023-04-07T00:11:09.875Z,0.00
2023-04-07T00:12:09.901Z,0.00
2023-04-07T00:13:09.911Z,0.00
2023-04-07T00:14:09.940Z,0.00
2023-04-07T00:15:09.963Z,0.00
2023-04-07T00:16:10.043Z,0.00
2023-04-07T00:17:10.010Z,0.00
2023-04-07T00:18:10.086Z,0.00
2023-04-07T00:19:10.047Z,0.00
2023-04-07T00:20:10.074Z,0.00
2023-04-07T00:21:10.087Z,0.00
2023-04-07T00:22:10.107Z,0.00
2023-04-07T00:23:10.129Z,0.00
2023-04-07T00:24:10.345Z,0.00
2023-04-07T00:25:10.171Z,0.00
2023-04-07T00:26:10.191Z,0.00
2023-04-07T00:27:10.212Z,0.00
2023-04-07T00:28:10.254Z,0.00
2023-04-07T00:29:10.267Z,0.00
2023-04-07T00:30:10.274Z,0.00
2023-04-07T00:31:10.323Z,0.00
2023-04-07T00:32:10.314Z,0.00
2023-04-07T00:33:10.352Z,0.00
2023-04-07T00:34:10.364Z,0.00
2023-04-07T00:35:10.383Z,0.00
2023-04-07T00:36:10.427Z,0.00
2023-04-07T00:37:10.424Z,0.00
2023-04-07T00:38:10.449Z,0.00
2023-04-07T00:39:10.459Z,0.00
2023-04-07T00:40:10.483Z,0.00
2023-04-07T00:41:10.497Z,0.00
2023-04-07T00:42:10.526Z,0.00
2023-04-07T00:43:10.549Z,0.00
2023-04-07T00:44:10.561Z,0.00
2023-04-07T00:45:10.599Z,0.00
2023-04-07T00:46:10.662Z,0.00
2023-04-07T00:47:10.630Z,0.00
2023-04-07T00:48:10.649Z,0.00
2023-04-07T00:49:11.373Z,0.00
2023-04-07T00:50:10.738Z,0.00
2023-04-07T00:51:10.714Z,0.00
2023-04-07T00:52:10.737Z,0.00
2023-04-07T00:53:10.752Z,0.00
2023-04-07T00:54:10.772Z,0.00
2023-04-07T00:55:10.800Z,0.00
2023-04-07T00:56:10.833Z,0.00
2023-04-07T00:57:10.836Z,0.00
2023-04-07T00:58:10.858Z,0.00
2023-04-07T00:59:10.878Z,0.00
2023-04-07T01:00:10.902Z,0.00
2023-04-07T01:01:10.929Z,0.00
2023-04-07T01:02:11.067Z,0.00
2023-04-07T01:03:11.268Z,0.00
2023-04-07T01:04:11.018Z,0.00
2023-04-07T01:05:11.060Z,0.00
2023-04-07T01:06:11.033Z,0.00
2023-04-07T01:07:11.064Z,0.00
2023-04-07T01:08:11.067Z,0.00
2023-04-07T01:09:11.083Z,0.00
2023-04-07T01:10:11.115Z,0.00
2023-04-07T01:11:11.125Z,0.00
2023-04-07T01:12:11.148Z,0.00
2023-04-07T01:13:11.171Z,0.00
2023-04-07T01:14:11.189Z,0.00
2023-04-07T01:15:11.215Z,0.00
2023-04-07T01:16:11.285Z,0.00
2023-04-07T01:17:11.260Z,0.00
2023-04-07T01:18:11.272Z,0.00
2023-04-07T01:19:11.293Z,0.00
2023-04-07T01:20:11.321Z,0.00
2023-04-07T01:21:11.342Z,0.00
2023-04-07T01:22:11.351Z,0.00
2023-04-07T01:23:11.379Z,0.00
2023-04-07T01:24:11.450Z,0.00
2023-04-07T01:25:11.431Z,0.00
2023-04-07T01:26:11.438Z,0.00
2023-04-07T01:27:11.471Z,0.00
2023-04-07T01:28:11.484Z,0.00
2023-04-07T01:29:11.499Z,0.00
2023-04-07T01:30:11.534Z,0.00
2023-04-07T01:31:11.539Z,0.00
2023-04-07T01:32:11.825Z,0.00
2023-04-07T01:33:11.582Z,0.00
2023-04-07T01:34:11.613Z,0.00
2023-04-07T01:35:11.625Z,0.00
2023-04-07T01:36:11.644Z,0.00
2023-04-07T01:37:11.685Z,0.00
2023-04-07T01:38:11.690Z,0.00
2023-04-07T01:39:11.712Z,0.00
2023-04-07T01:40:11.737Z,0.00
2023-04-07T01:41:11.752Z,0.00
2023-04-07T01:42:11.807Z,0.00
2023-04-07T01:43:11.799Z,0.00
2023-04-07T01:44:11.819Z,0.00
2023-04-07T01:45:11.851Z,0.00
2023-04-07T01:46:11.859Z,0.00
2023-04-07T01:47:11.920Z,0.00
2023-04-07T01:48:11.930Z,0.00
2023-04-07T01:49:11.923Z,0.00
2023-04-07T01:50:11.944Z,0.00
2023-04-07T01:51:11.987Z,0.00
2023-04-07T01:52:11.997Z,0.00
2023-04-07T01:53:12.005Z,0.00
2023-04-07T01:54:12.024Z,0.00
2023-04-07T01:55:12.050Z,0.00
2023-04-07T01:56:12.071Z,0.00
2023-04-07T01:57:12.091Z,0.00
2023-04-07T01:58:12.119Z,0.00
2023-04-07T01:59:12.132Z,0.00
2023-04-07T02:00:12.155Z,0.00
2023-04-07T02:01:12.187Z,0.00
2023-04-07T02:02:12.235Z,0.00
2023-04-07T02:03:12.367Z,0.00
2023-04-07T02:04:12.328Z,0.00
2023-04-07T02:05:12.254Z,0.00
2023-04-07T02:06:12.284Z,0.00
2023-04-07T02:07:12.298Z,0.00
2023-04-07T02:08:12.312Z,0.00
2023-04-07T02:09:12.336Z,0.00
2023-04-07T02:10:12.359Z,0.00
2023-04-07T02:11:12.393Z,0.00
2023-04-07T02:12:12.399Z,0.00
2023-04-07T02:13:12.425Z,0.00
2023-04-07T02:14:12.456Z,0.00
2023-04-07T02:15:12.467Z,0.00
2023-04-07T02:16:12.490Z,0.00
2023-04-07T02:17:12.503Z,0.00
2023-04-07T02:18:12.521Z,0.00
2023-04-07T02:19:12.539Z,0.00
2023-04-07T02:20:12.563Z,0.00
2023-04-07T02:21:12.597Z,0.00
2023-04-07T02:22:12.609Z,0.00
2023-04-07T02:23:12.629Z,0.00
2023-04-07T02:24:12.649Z,0.00
2023-04-07T02:25:12.663Z,0.00
2023-04-07T02:26:12.685Z,0.00
2023-04-07T02:27:12.706Z,0.00
2023-04-07T02:28:12.738Z,0.00
2023-04-07T02:29:12.748Z,0.00
2023-04-07T02:30:12.769Z,0.00
2023-04-07T02:31:12.871Z,0.00
2023-04-07T02:32:12.811Z,0.00
2023-04-07T02:33:12.830Z,0.00
2023-04-07T02:34:12.854Z,0.00
2023-04-07T02:35:12.871Z,0.00
2023-04-07T02:36:12.890Z,0.00
2023-04-07T02:37:12.944Z,0.00
2023-04-07T02:38:12.935Z,0.00
2023-04-07T02:39:12.956Z,0.00
2023-04-07T02:40:12.982Z,0.00
2023-04-07T02:41:12.999Z,0.00
2023-04-07T02:42:13.040Z,0.00
2023-04-07T02:43:13.037Z,0.00
2023-04-07T02:44:13.059Z,0.00
2023-04-07T02:45:13.088Z,0.00
2023-04-07T02:46:15.414Z,0.00
2023-04-07T02:47:13.120Z,0.00
2023-04-07T02:48:13.142Z,0.00
2023-04-07T02:49:13.161Z,0.00
2023-04-07T02:50:13.184Z,0.00
2023-04-07T02:51:13.211Z,0.00
2023-04-07T02:52:13.220Z,0.00
2023-04-07T02:53:13.253Z,0.00
2023-04-07T02:54:13.258Z,0.00
2023-04-07T02:55:13.289Z,0.00
2023-04-07T02:56:13.313Z,0.00
2023-04-07T02:57:13.324Z,0.00
2023-04-07T02:58:13.880Z,0.00
2023-04-07T02:59:13.364Z,0.00
2023-04-07T03:00:13.394Z,0.00
2023-04-07T03:01:13.438Z,0.00
2023-04-07T03:02:13.560Z,0.00
2023-04-07T03:03:13.516Z,0.00
2023-04-07T03:04:13.679Z,0.00
2023-04-07T03:05:13.495Z,0.00
2023-04-07T03:06:13.506Z,0.00
2023-04-07T03:07:13.551Z,0.00
2023-04-07T03:08:13.560Z,0.00
2023-04-07T03:09:13.574Z,0.00
2023-04-07T03:10:13.595Z,0.00
2023-04-07T03:11:13.612Z,0.00
2023-04-07T03:12:13.640Z,0.00
2023-04-07T03:13:13.667Z,0.00
2023-04-07T03:14:13.675Z,0.00
2023-04-07T03:15:13.697Z,0.00
2023-04-07T03:16:13.718Z,0.00
2023-04-07T03:17:13.735Z,0.00
2023-04-07T03:18:13.754Z,0.00
2023-04-07T03:19:13.777Z,0.00
2023-04-07T03:20:13.799Z,0.00
2023-04-07T03:21:13.821Z,0.00
2023-04-07T03:22:13.850Z,0.00
2023-04-07T03:23:13.862Z,0.00
2023-04-07T03:24:13.883Z,0.00
2023-04-07T03:25:13.906Z,0.00
2023-04-07T03:26:13.967Z,0.00
2023-04-07T03:27:13.943Z,0.00
2023-04-07T03:28:13.963Z,0.00
2023-04-07T03:29:13.984Z,0.00
2023-04-07T03:30:14.013Z,0.00
2023-04-07T03:31:14.047Z,0.00
2023-04-07T03:32:14.049Z,0.00
2023-04-07T03:33:14.070Z,0.00
2023-04-07T03:34:14.090Z,0.00
2023-04-07T03:35:14.110Z,0.00
2023-04-07T03:36:14.139Z,0.00
2023-04-07T03:37:14.150Z,0.00
2023-04-07T03:38:14.170Z,0.00
2023-04-07T03:39:14.193Z,0.00
2023-04-07T03:40:14.209Z,0.00
2023-04-07T03:41:14.234Z,0.00
2023-04-07T03:42:14.251Z,0.00
2023-04-07T03:43:14.311Z,0.00
2023-04-07T03:44:14.294Z,0.00
2023-04-07T03:45:14.320Z,0.00
2023-04-07T03:46:14.378Z,0.00
2023-04-07T03:47:14.363Z,0.00
2023-04-07T03:48:14.384Z,0.00
2023-04-07T03:49:14.400Z,0.00
2023-04-07T03:50:14.426Z,0.00
2023-04-07T03:51:14.437Z,0.00
2023-04-07T03:52:14.461Z,0.00
2023-04-07T03:53:14.481Z,0.00
2023-04-07T03:54:14.501Z,0.00
2023-04-07T03:55:14.520Z,0.00
2023-04-07T03:56:14.552Z,0.00
2023-04-07T03:57:14.563Z,0.00
2023-04-07T03:58:14.584Z,0.00
2023-04-07T03:59:14.607Z,0.00
2023-04-07T04:00:14.624Z,0.00
2023-04-07T04:01:14.651Z,0.00
2023-04-07T04:02:14.769Z,0.00
2023-04-07T04:03:14.745Z,0.00
2023-04-07T04:04:14.841Z,0.00
2023-04-07T04:05:14.726Z,0.00
2023-04-07T04:06:14.756Z,0.00
2023-04-07T04:07:14.771Z,0.00
2023-04-07T04:08:14.803Z,0.00
2023-04-07T04:09:14.824Z,0.00
2023-04-07T04:10:14.834Z,0.00
2023-04-07T04:11:14.850Z,0.00
2023-04-07T04:12:14.877Z,0.00
2023-04-07T04:13:14.904Z,0.00
2023-04-07T04:14:14.910Z,0.00
2023-04-07T04:15:14.948Z,0.00
2023-04-07T04:16:15.371Z,0.00
2023-04-07T04:17:14.977Z,0.00
2023-04-07T04:18:14.995Z,0.00
2023-04-07T04:19:15.015Z,0.00
2023-04-07T04:20:15.039Z,0.00
2023-04-07T04:21:15.069Z,0.00
2023-04-07T04:22:15.076Z,0.00
2023-04-07T04:23:15.098Z,0.00
2023-04-07T04:24:15.125Z,0.00
2023-04-07T04:25:15.138Z,0.00
2023-04-07T04:26:15.158Z,0.00
2023-04-07T04:27:15.181Z,0.00
2023-04-07T04:28:15.213Z,4.00
2023-04-07T04:29:15.217Z,4.00
2023-04-07T04:30:15.241Z,0.00
2023-04-07T04:31:15.301Z,4.00
2023-04-07T04:32:15.283Z,4.00
2023-04-07T04:33:15.304Z,4.00
2023-04-07T04:34:15.326Z,8.00
2023-04-07T04:35:15.357Z,8.00
2023-04-07T04:36:15.364Z,8.00
2023-04-07T04:37:15.385Z,12.00
2023-04-07T04:38:15.406Z,12.00
2023-04-07T04:39:15.428Z,16.00
2023-04-07T04:40:15.458Z,20.00
2023-04-07T04:41:15.467Z,24.00
2023-04-07T04:42:15.487Z,24.00
2023-04-07T04:43:15.509Z,28.00
2023-04-07T04:44:15.534Z,32.00
2023-04-07T04:45:15.563Z,32.00
2023-04-07T04:46:15.570Z,36.00
2023-04-07T04:47:15.662Z,36.00
2023-04-07T04:48:15.617Z,40.00
2023-04-07T04:49:15.635Z,44.00
2023-04-07T04:50:15.660Z,48.00
2023-04-07T04:51:22.846Z,52.00
2023-04-07T04:53:20.183Z,60.00
2023-04-07T04:54:19.695Z,68.00
2023-04-07T04:55:19.731Z,72.00
2023-04-07T04:56:19.734Z,76.00
2023-04-07T04:57:19.754Z,84.00
2023-04-07T04:58:19.778Z,88.00
2023-04-07T04:59:19.795Z,96.00
2023-04-07T05:00:19.817Z,104.00
2023-04-07T05:01:19.896Z,108.00
2023-04-07T05:02:19.878Z,112.00
2023-04-07T05:03:20.013Z,120.00
2023-04-07T05:04:20.044Z,132.00
2023-04-07T05:05:20.046Z,136.00
2023-04-07T05:06:19.940Z,136.00
2023-04-07T05:07:19.961Z,136.00
2023-04-07T05:08:19.989Z,136.00
2023-04-07T05:09:20.007Z,136.00
2023-04-07T05:10:20.025Z,136.00
2023-04-07T05:11:20.040Z,140.00
2023-04-07T05:12:20.065Z,148.00
2023-04-07T05:13:20.086Z,164.00
2023-04-07T05:14:20.119Z,192.00
2023-04-07T05:15:20.124Z,228.00
2023-04-07T05:16:20.202Z,264.00
2023-04-07T05:17:20.241Z,300.00
2023-04-07T05:18:20.184Z,336.00
2023-04-07T05:19:20.205Z,360.00
2023-04-07T05:20:20.226Z,384.00
2023-04-07T05:21:20.245Z,416.00
2023-04-07T05:22:20.271Z,440.00
2023-04-07T05:23:20.286Z,468.00
2023-04-07T05:24:20.309Z,496.00
2023-04-07T05:25:20.341Z,524.00
2023-04-07T05:26:20.348Z,556.00
2023-04-07T05:27:20.372Z,584.00
2023-04-07T05:28:20.392Z,608.00
2023-04-07T05:29:20.409Z,644.00
2023-04-07T05:30:20.442Z,680.00
2023-04-07T05:31:20.501Z,716.00
2023-04-07T05:32:20.483Z,748.00
2023-04-07T05:33:20.493Z,776.00
2023-04-07T05:34:20.514Z,800.00
2023-04-07T05:35:20.535Z,828.00
2023-04-07T05:36:20.582Z,860.00
2023-04-07T05:37:20.576Z,888.00
2023-04-07T05:38:20.621Z,916.00
2023-04-07T05:39:20.622Z,928.00
2023-04-07T05:40:20.665Z,940.00
2023-04-07T05:41:20.659Z,948.00
2023-04-07T05:42:20.679Z,956.00
2023-04-07T05:43:20.702Z,980.00
2023-04-07T05:44:20.725Z,1004.00
2023-04-07T05:45:20.790Z,1012.00
2023-04-07T05:46:20.796Z,1000.00
2023-04-07T05:47:20.833Z,984.00
2023-04-07T05:48:20.806Z,980.00
2023-04-07T05:49:20.942Z,1000.00
2023-04-07T05:50:20.859Z,1032.00
2023-04-07T05:51:20.870Z,1060.00
2023-04-07T05:52:20.882Z,1084.00
2023-04-07T05:53:20.910Z,1096.00
2023-04-07T05:54:20.936Z,1080.00
2023-04-07T05:55:20.954Z,1044.00
2023-04-07T05:56:20.968Z,1020.00
2023-04-07T05:57:20.991Z,1032.00
2023-04-07T05:58:21.115Z,1084.00
2023-04-07T05:59:21.095Z,1156.00
2023-04-07T06:00:21.128Z,1220.00
2023-04-07T06:01:21.130Z,1244.00
2023-04-07T06:02:21.239Z,1260.00
2023-04-07T06:03:21.335Z,1300.00
2023-04-07T06:04:21.172Z,1344.00
2023-04-07T06:05:21.279Z,1388.00
2023-04-07T06:06:21.189Z,1432.00
2023-04-07T06:07:21.197Z,1512.00
2023-04-07T06:08:21.222Z,1648.00
2023-04-07T06:09:21.244Z,1808.00
2023-04-07T06:10:21.262Z,1968.00
2023-04-07T06:11:21.308Z,2096.00
2023-04-07T06:12:21.303Z,2232.00
2023-04-07T06:13:21.325Z,2384.00
2023-04-07T06:14:21.389Z,2556.00
2023-04-07T06:15:21.378Z,2744.00
2023-04-07T06:16:21.452Z,2920.00
2023-04-07T06:17:21.440Z,3048.00
2023-04-07T06:18:21.429Z,3160.00
2023-04-07T06:19:21.446Z,3256.00
2023-04-07T06:20:21.483Z,3332.00
2023-04-07T06:21:21.490Z,3376.00
2023-04-07T06:22:21.514Z,3420.00
2023-04-07T06:23:21.534Z,3444.00
2023-04-07T06:24:21.554Z,3476.00
2023-04-07T06:25:21.575Z,3512.00
2023-04-07T06:26:21.600Z,3528.00
2023-04-07T06:27:21.617Z,3564.00
2023-04-07T06:28:21.643Z,3620.00
2023-04-07T06:29:21.657Z,3688.00
2023-04-07T06:30:21.682Z,3752.00
2023-04-07T06:31:21.765Z,3792.00
2023-04-07T06:32:21.734Z,3808.00
2023-04-07T06:33:21.751Z,3784.00
2023-04-07T06:34:21.761Z,3696.00
2023-04-07T06:35:21.807Z,3668.00
2023-04-07T06:36:21.897Z,3628.00
2023-04-07T06:37:21.823Z,3540.00
2023-04-07T06:38:21.848Z,3420.00
2023-04-07T06:39:21.869Z,3252.00
2023-04-07T06:40:21.897Z,2988.00
2023-04-07T06:41:21.914Z,2724.00
2023-04-07T06:42:21.934Z,2508.00
2023-04-07T06:43:21.954Z,2332.00
2023-04-07T06:44:21.974Z,2236.00
2023-04-07T06:45:21.993Z,2136.00
2023-04-07T06:46:22.087Z,2060.00
2023-04-07T06:47:22.037Z,2056.00
2023-04-07T06:48:22.058Z,2164.00
2023-04-07T06:49:22.089Z,2252.00
2023-04-07T06:50:22.106Z,2376.00
2023-04-07T06:51:22.180Z,2552.00
2023-04-07T06:52:22.144Z,2584.00
2023-04-07T06:53:22.166Z,2660.00
2023-04-07T06:54:22.186Z,2760.00
2023-04-07T06:55:22.219Z,2896.00
2023-04-07T06:56:22.226Z,2996.00
2023-04-07T06:57:22.261Z,3040.00
2023-04-07T06:58:22.275Z,3052.00
2023-04-07T06:59:22.291Z,3064.00
2023-04-07T07:00:22.313Z,3120.00
2023-04-07T07:01:22.352Z,3164.00
2023-04-07T07:02:22.520Z,3400.00
2023-04-07T07:03:22.459Z,3600.00
2023-04-07T07:04:22.514Z,4124.00
2023-04-07T07:05:22.422Z,4232.00
2023-04-07T07:06:22.440Z,3884.00
2023-04-07T07:07:22.462Z,3556.00
2023-04-07T07:08:22.482Z,3300.00
2023-04-07T07:09:22.505Z,3180.00
2023-04-07T07:10:22.533Z,3096.00
2023-04-07T07:11:22.549Z,3088.00
2023-04-07T07:12:22.565Z,3036.00
2023-04-07T07:13:22.586Z,3096.00
2023-04-07T07:14:22.614Z,3128.00
2023-04-07T07:15:22.638Z,3156.00
2023-04-07T07:16:22.650Z,3128.00
2023-04-07T07:17:22.733Z,3080.00
2023-04-07T07:18:22.707Z,3072.00
2023-04-07T07:19:22.714Z,3108.00
2023-04-07T07:20:22.735Z,3204.00
2023-04-07T07:21:22.767Z,3360.00
2023-04-07T07:22:22.783Z,3572.00
2023-04-07T07:23:22.805Z,3864.00
2023-04-07T07:24:22.823Z,4256.00
2023-04-07T07:25:22.840Z,4620.00
2023-04-07T07:26:22.865Z,4968.00
2023-04-07T07:27:22.910Z,5296.00
2023-04-07T07:28:22.908Z,5552.00
2023-04-07T07:29:22.937Z,5808.00
2023-04-07T07:30:22.948Z,5960.00
2023-04-07T07:31:23.050Z,6076.00
2023-04-07T07:32:23.030Z,6208.00
2023-04-07T07:33:23.043Z,6296.00
2023-04-07T07:34:23.034Z,6308.00
2023-04-07T07:35:23.080Z,6304.00
2023-04-07T07:36:23.108Z,6252.00
2023-04-07T07:37:23.198Z,6076.00
2023-04-07T07:38:23.132Z,6168.00
2023-04-07T07:39:23.156Z,6388.00
2023-04-07T07:40:23.162Z,6608.00
2023-04-07T07:41:23.183Z,6744.00
2023-04-07T07:42:23.207Z,7008.00
2023-04-07T07:43:23.226Z,7248.00
2023-04-07T07:44:23.246Z,7508.00
2023-04-07T07:45:23.275Z,7668.00
2023-04-07T07:46:23.344Z,7796.00
2023-04-07T07:47:23.432Z,7740.00
2023-04-07T07:48:23.339Z,7396.00
2023-04-07T07:49:23.356Z,7516.00
2023-04-07T07:50:23.379Z,7336.00
2023-04-07T07:51:23.481Z,6980.00
2023-04-07T07:52:23.422Z,6912.00
2023-04-07T07:53:23.444Z,6896.00
2023-04-07T07:54:23.462Z,6812.00
2023-04-07T07:55:23.487Z,6744.00
2023-04-07T07:56:23.510Z,6764.00
2023-04-07T07:57:23.531Z,6808.00
2023-04-07T07:58:23.564Z,6808.00
2023-04-07T07:59:23.572Z,6816.00
2023-04-07T08:00:23.599Z,6844.00
2023-04-07T08:01:23.616Z,7052.00
2023-04-07T08:02:23.708Z,7224.00
2023-04-07T08:03:23.828Z,7492.00
2023-04-07T08:04:23.749Z,7600.00
2023-04-07T08:05:23.705Z,7688.00
2023-04-07T08:06:23.727Z,8340.00
2023-04-07T08:07:23.749Z,8732.00
2023-04-07T08:08:23.771Z,8992.00
2023-04-07T08:09:23.795Z,9072.00
2023-04-07T08:10:23.823Z,9320.00
2023-04-07T08:11:23.839Z,9448.00
2023-04-07T08:12:23.860Z,9440.00
2023-04-07T08:13:23.881Z,9448.00
2023-04-07T08:14:23.906Z,9624.00
2023-04-07T08:15:23.935Z,9480.00
2023-04-07T08:16:24.068Z,9172.00
2023-04-07T08:17:24.015Z,8908.00
2023-04-07T08:18:23.999Z,8892.00
2023-04-07T08:19:24.022Z,9244.00
2023-04-07T08:20:24.128Z,9224.00
2023-04-07T08:21:24.063Z,9228.00
2023-04-07T08:22:24.086Z,10012.00
2023-04-07T08:23:24.107Z,10824.00
2023-04-07T08:24:24.125Z,11112.00
2023-04-07T08:25:24.150Z,10816.00
2023-04-07T08:26:24.173Z,10592.00
2023-04-07T08:27:24.202Z,10536.00
2023-04-07T08:28:24.216Z,10404.00
2023-04-07T08:29:24.236Z,10428.00
2023-04-07T08:30:24.276Z,10380.00
2023-04-07T08:31:24.307Z,10756.00
2023-04-07T08:32:24.309Z,11144.00
2023-04-07T08:33:24.328Z,11020.00
2023-04-07T08:34:24.359Z,10812.00
2023-04-07T08:35:24.404Z,11216.00
2023-04-07T08:36:24.466Z,11392.00
2023-04-07T08:37:24.420Z,11320.00
2023-04-07T08:38:24.445Z,11000.00
2023-04-07T08:39:24.465Z,11308.00
2023-04-07T08:40:24.526Z,11640.00
2023-04-07T08:41:24.510Z,11948.00
2023-04-07T08:42:24.559Z,12336.00
2023-04-07T08:43:24.555Z,12696.00
2023-04-07T08:44:24.598Z,12988.00
2023-04-07T08:45:24.603Z,13296.00
2023-04-07T08:46:24.652Z,13368.00
2023-04-07T08:47:24.688Z,13016.00
2023-04-07T08:48:24.670Z,12368.00
2023-04-07T08:49:24.699Z,12420.00
2023-04-07T08:50:24.712Z,12564.00
2023-04-07T08:51:24.740Z,12696.00
2023-04-07T08:52:24.761Z,12912.00
2023-04-07T08:53:24.784Z,12640.00
2023-04-07T08:54:24.810Z,12948.00
2023-04-07T08:55:24.831Z,13272.00
2023-04-07T08:56:24.883Z,13212.00
2023-04-07T08:57:24.887Z,13208.00
2023-04-07T08:58:24.905Z,12972.00
2023-04-07T08:59:24.952Z,13000.00
2023-04-07T09:00:24.960Z,13080.00
2023-04-07T09:01:25.002Z,13396.00
2023-04-07T09:02:25.073Z,13200.00
2023-04-07T09:03:25.066Z,13084.00
2023-04-07T09:04:25.043Z,12936.00
2023-04-07T09:05:25.083Z,12904.00
2023-04-07T09:06:25.084Z,12824.00
2023-04-07T09:07:25.108Z,12672.00
2023-04-07T09:08:25.132Z,12468.00
2023-04-07T09:09:25.160Z,12284.00
2023-04-07T09:10:25.173Z,12028.00
2023-04-07T09:11:25.204Z,11504.00
2023-04-07T09:12:25.226Z,10748.00
2023-04-07T09:13:25.249Z,10536.00
2023-04-07T09:14:25.281Z,11052.00
2023-04-07T09:15:25.301Z,11060.00
2023-04-07T09:16:25.346Z,10340.00
2023-04-07T09:17:25.378Z,9476.00
2023-04-07T09:18:25.365Z,8996.00
2023-04-07T09:19:25.390Z,8596.00
2023-04-07T09:20:25.415Z,8132.00
2023-04-07T09:21:25.447Z,8068.00
2023-04-07T09:22:25.460Z,8228.00
2023-04-07T09:23:25.489Z,8056.00
2023-04-07T09:24:25.519Z,7732.00
2023-04-07T09:25:25.529Z,8052.00
2023-04-07T09:26:25.564Z,9588.00
2023-04-07T09:27:25.582Z,10504.00
2023-04-07T09:28:25.608Z,10432.00
2023-04-07T09:29:25.626Z,9196.00
2023-04-07T09:30:25.646Z,7412.00
2023-04-07T09:31:25.715Z,6668.00
2023-04-07T09:32:25.748Z,6956.00
2023-04-07T09:33:25.717Z,7392.00
2023-04-07T09:34:25.750Z,7208.00
2023-04-07T09:35:25.775Z,6752.00
2023-04-07T09:36:25.790Z,6796.00
2023-04-07T09:37:25.813Z,7352.00
2023-04-07T09:38:25.844Z,8288.00
2023-04-07T09:39:25.873Z,9292.00
2023-04-07T09:40:25.884Z,9984.00
2023-04-07T09:41:25.939Z,10108.00
2023-04-07T09:42:25.936Z,9704.00
2023-04-07T09:43:25.953Z,8972.00
2023-04-07T09:44:25.977Z,7828.00
2023-04-07T09:45:33.946Z,6868.00
2023-04-07T09:46:26.336Z,6316.00
2023-04-07T09:47:26.068Z,6072.00
2023-04-07T09:48:26.070Z,6088.00
2023-04-07T09:49:26.093Z,6184.00
2023-04-07T09:50:26.115Z,6136.00
2023-04-07T09:51:26.140Z,6000.00
2023-04-07T09:52:26.163Z,6076.00
2023-04-07T09:53:26.185Z,6368.00
2023-04-07T09:54:26.210Z,6224.00
2023-04-07T09:55:26.232Z,5464.00
2023-04-07T09:56:26.259Z,4512.00
2023-04-07T09:57:26.280Z,3944.00
2023-04-07T09:58:26.306Z,3720.00
2023-04-07T09:59:26.326Z,3572.00
2023-04-07T10:00:26.358Z,4052.00
2023-04-07T10:01:26.392Z,5240.00
2023-04-07T10:02:26.457Z,6608.00
2023-04-07T10:03:26.448Z,8112.00
2023-04-07T10:04:26.490Z,9932.00
2023-04-07T10:05:26.470Z,11548.00
2023-04-07T10:06:26.486Z,12448.00
2023-04-07T10:07:26.513Z,12688.00
2023-04-07T10:08:26.556Z,11824.00
2023-04-07T10:09:26.564Z,9828.00
2023-04-07T10:10:26.603Z,7664.00
2023-04-07T10:11:26.602Z,6008.00
2023-04-07T10:12:26.631Z,4956.00
2023-04-07T10:13:26.651Z,4572.00
2023-04-07T10:14:26.676Z,5200.00
2023-04-07T10:15:26.744Z,7052.00
2023-04-07T10:16:26.817Z,9264.00
2023-04-07T10:17:26.779Z,10572.00
2023-04-07T10:18:26.769Z,11260.00
2023-04-07T10:19:26.791Z,11420.00
2023-04-07T10:20:26.821Z,11016.00
2023-04-07T10:21:26.836Z,10344.00
2023-04-07T10:22:26.858Z,9728.00
2023-04-07T10:23:26.886Z,9368.00
2023-04-07T10:24:26.909Z,9328.00
2023-04-07T10:25:26.944Z,10236.00
2023-04-07T10:26:26.954Z,12060.00
2023-04-07T10:27:26.977Z,13628.00
2023-04-07T10:28:26.996Z,14132.00
2023-04-07T10:29:27.030Z,13588.00
2023-04-07T10:30:27.061Z,12292.00
2023-04-07T10:31:27.114Z,10184.00
2023-04-07T10:32:27.238Z,8460.00
2023-04-07T10:33:27.114Z,7652.00
2023-04-07T10:34:27.140Z,7716.00
2023-04-07T10:35:27.180Z,8084.00
2023-04-07T10:36:27.185Z,8308.00
2023-04-07T10:37:27.208Z,7848.00
2023-04-07T10:38:27.233Z,7252.00
2023-04-07T10:39:27.256Z,6996.00
2023-04-07T10:40:27.281Z,7576.00
2023-04-07T10:41:27.310Z,8756.00
2023-04-07T10:42:27.330Z,9668.00
2023-04-07T10:43:27.353Z,9840.00
2023-04-07T10:44:27.368Z,9316.00
2023-04-07T10:45:27.397Z,8632.00
2023-04-07T10:46:27.432Z,8032.00
2023-04-07T10:47:27.479Z,7628.00
2023-04-07T10:48:27.472Z,7200.00
2023-04-07T10:49:27.488Z,6436.00
2023-04-07T10:50:27.513Z,5600.00
2023-04-07T10:51:27.533Z,5092.00
2023-04-07T10:52:27.567Z,5224.00
2023-04-07T10:53:27.576Z,5948.00
2023-04-07T10:54:29.321Z,7412.00
2023-04-07T10:55:27.638Z,9636.00
2023-04-07T10:56:27.653Z,11868.00
2023-04-07T10:57:27.677Z,13140.00
2023-04-07T10:58:27.700Z,12968.00
2023-04-07T10:59:28.066Z,11564.00
2023-04-07T11:00:27.746Z,9788.00
2023-04-07T11:01:27.832Z,8576.00
2023-04-07T11:02:27.939Z,7968.00
2023-04-07T11:03:27.891Z,7968.00
2023-04-07T11:04:27.985Z,8380.00
2023-04-07T11:05:27.861Z,9308.00
2023-04-07T11:06:27.886Z,10884.00
2023-04-07T11:07:27.913Z,12472.00
2023-04-07T11:08:27.931Z,13452.00
2023-04-07T11:09:27.959Z,13900.00
2023-04-07T11:10:27.978Z,13984.00
2023-04-07T11:11:27.996Z,13860.00
2023-04-07T11:12:28.023Z,13532.00
2023-04-07T11:13:28.046Z,12928.00
2023-04-07T11:14:28.092Z,12104.00
2023-04-07T11:15:28.100Z,10928.00
2023-04-07T11:16:28.181Z,9588.00
2023-04-07T11:17:28.175Z,8432.00
2023-04-07T11:18:28.167Z,7580.00
2023-04-07T11:19:28.187Z,7112.00
2023-04-07T11:20:28.211Z,7088.00
2023-04-07T11:21:28.237Z,7092.00
2023-04-07T11:22:30.412Z,7868.00
2023-04-07T11:23:28.286Z,9768.00
2023-04-07T11:24:28.307Z,11740.00
2023-04-07T11:25:28.331Z,12888.00
2023-04-07T11:26:28.356Z,13372.00
2023-04-07T11:27:28.386Z,13300.00
2023-04-07T11:28:28.406Z,12876.00
2023-04-07T11:29:28.430Z,12568.00
2023-04-07T11:30:28.459Z,12532.00
2023-04-07T11:31:28.548Z,12464.00
2023-04-07T11:32:28.552Z,12208.00
2023-04-07T11:33:28.525Z,11836.00
2023-04-07T11:34:28.544Z,11532.00
2023-04-07T11:35:28.576Z,11344.00
2023-04-07T11:36:28.596Z,11224.00
2023-04-07T11:37:28.618Z,10904.00
2023-04-07T11:38:28.646Z,10616.00
2023-04-07T11:39:28.667Z,10856.00
2023-04-07T11:40:28.694Z,12012.00
2023-04-07T11:41:28.732Z,13392.00
2023-04-07T11:42:28.742Z,14244.00
2023-04-07T11:43:28.770Z,14288.00
2023-04-07T11:44:28.792Z,14064.00
2023-04-07T11:45:28.811Z,14284.00
2023-04-07T11:46:28.866Z,14960.00
2023-04-07T11:47:28.877Z,15292.00
2023-04-07T11:48:28.889Z,14960.00
2023-04-07T11:49:29.188Z,14180.00
2023-04-07T11:50:28.938Z,13328.00
2023-04-07T11:51:28.956Z,12376.00
2023-04-07T11:52:28.986Z,11480.00
2023-04-07T11:53:29.025Z,11304.00
2023-04-07T11:54:29.041Z,11380.00
2023-04-07T11:55:29.058Z,11148.00
2023-04-07T11:56:29.083Z,10436.00
2023-04-07T11:57:29.110Z,10524.00
2023-04-07T11:58:29.137Z,11248.00
2023-04-07T11:59:29.159Z,11032.00
2023-04-07T12:00:29.179Z,10504.00
2023-04-07T12:01:29.248Z,10912.00
2023-04-07T12:02:29.368Z,12172.00
2023-04-07T12:03:29.295Z,13560.00
2023-04-07T12:04:29.416Z,14064.00
2023-04-07T12:05:29.302Z,14144.00
2023-04-07T12:06:29.326Z,14196.00
2023-04-07T12:07:29.357Z,13940.00
2023-04-07T12:08:29.375Z,13544.00
2023-04-07T12:09:29.474Z,13020.00
2023-04-07T12:10:29.425Z,12416.00
2023-04-07T12:11:29.457Z,11980.00
2023-04-07T12:12:29.474Z,11724.00
2023-04-07T12:13:29.500Z,11392.00
2023-04-07T12:14:29.538Z,10776.00
2023-04-07T12:15:29.551Z,10336.00
2023-04-07T12:16:29.650Z,10268.00
2023-04-07T12:17:29.633Z,10424.00
2023-04-07T12:18:29.627Z,10744.00
2023-04-07T12:19:29.674Z,11084.00
2023-04-07T12:20:29.675Z,11348.00
2023-04-07T12:21:29.700Z,11428.00
2023-04-07T12:22:29.725Z,11316.00
2023-04-07T12:23:29.763Z,10984.00
2023-04-07T12:24:29.775Z,10612.00
2023-04-07T12:25:29.799Z,10232.00
2023-04-07T12:26:29.825Z,9968.00
2023-04-07T12:27:42.183Z,9972.00
2023-04-07T12:28:29.874Z,10260.00
2023-04-07T12:29:29.902Z,10652.00
2023-04-07T12:30:29.928Z,11104.00